METAR Data
IDs: Format: Raw Decoded Include TAF

Data at: 1703 UTC 03 Dec 2021

KUAO 031653Z 03004KT 10SM SCT110 04/01 A3027 RMK AO2 SLP251 T00390011
KUAO 031553Z 01005KT 10SM BKN110 02/00 A3028 RMK AO2 SLP254 T00220000
KUAO 031453Z 03004KT 10SM CLR 02/00 A3028 RMK AO2 SLP254 T00220000 58008
KUAO 031353Z AUTO 01006KT 10SM CLR 02/00 A3030 RMK AO2 SLP261 T00220000
KUAO 031253Z AUTO 01005KT 10SM CLR 02/00 A3030 RMK AO2 SLP260 T00220000
KUAO 031153Z AUTO 04003KT 10SM CLR 03/00 A3031 RMK AO2 SLP262 T00330000 10067 20022 56005
KUAO 031053Z AUTO 03004KT 10SM CLR 03/01 A3031 RMK AO2 SLP262 T00330006
KUAO 030953Z AUTO 34003KT 10SM CLR 04/01 A3032 RMK AO2 SLP266 T00390006
KUAO 030853Z AUTO 05005KT 10SM CLR 06/01 A3032 RMK AO2 SLP268 T00610011 58004
KUAO 030753Z AUTO 01005KT 10SM CLR 06/02 A3034 RMK AO2 SLP272 T00610022 401220061
KUAO 030653Z AUTO 36005KT 10SM CLR 06/02 A3034 RMK AO2 SLP272 T00610022
KUAO 030553Z AUTO 01005KT 10SM CLR 06/02 A3033 RMK AO2 SLP272 T00610022 10106 20061 58001
KUAO 030453Z AUTO 01008KT 10SM CLR 07/02 A3034 RMK AO2 SLP274 T00720022
KUAO 030353Z AUTO 01009KT 10SM CLR 08/03 A3034 RMK AO2 SLP273 T00780028
KUAO 030253Z 34006KT 10SM OVC050 09/03 A3034 RMK AO2 SLP273 T00890033 53006
KUAO 030153Z 04006KT 10SM BKN041 OVC050 09/03 A3032 RMK AO2 SLP267 T00940033
KUAO 030053Z 04004KT 10SM SCT038 OVC048 10/03 A3032 RMK AO2 SLP268 T01000033
KUAO 022353Z 35007KT 10SM BKN032 OVC050 11/04 A3032 RMK AO2 SLP268 T01060039 10122 20106 53003
KUAO 022309Z 34007KT 10SM BKN029 OVC050 11/04 A3031 RMK AO2 T01110039
KUAO 022253Z 34007KT 10SM FEW029 BKN050 11/04 A3031 RMK AO2 SLP263 T01110044
KUAO 022153Z 36008KT 10SM FEW034 OVC050 12/06 A3031 RMK AO2 SLP265 T01220056
KUAO 022053Z 35007KT 10SM BKN032 BKN042 OVC050 12/07 A3031 RMK AO2 SLP265 T01170067 58002
KUAO 022025Z 34004KT 10SM OVC030 12/06 A3031 RMK AO2 T01170061
KUAO 021953Z 35005KT 10SM BKN025 BKN033 OVC047 12/06 A3032 RMK AO2 SLP266 T01170061
KUAO 021853Z 00000KT 10SM BKN040 OVC050 12/06 A3032 RMK AO2 SLP267 T01220061
KUAO 021753Z 34003KT 10SM OVC035 12/07 A3032 RMK AO2 SLP267 T01170067 10117 20106 53019
KUAO 021725Z 00000KT 10SM OVC034 12/07 A3031 RMK AO2 T01170067
KUAO 021653Z 00000KT 10SM BKN028 11/07 A3030 RMK AO2 SLP260 T01110067
KUAO 021553Z 35004KT 10SM OVC027 11/07 A3028 RMK AO2 SLP254 T01110072
KUAO 021453Z 31003KT 10SM FEW014 OVC020 11/09 A3026 RMK AO2 SLP248 T01110089 53012
KUAO 021410Z AUTO 21003KT 8SM OVC013 11/09 A3025 RMK AO2 T01060094
KUAO 021353Z AUTO 16005KT 7SM BKN015 OVC024 11/09 A3024 RMK AO2 SLP238 T01060094
KUAO 021253Z AUTO 00000KT 8SM SCT017 OVC023 11/09 A3024 RMK AO2 SLP239 T01110094
KUAO 021153Z AUTO 00000KT 6SM BR OVC024 11/09 A3023 RMK AO2 SLP234 T01060094 10111 20094 55000
KUAO 021053Z AUTO 00000KT 5SM BR BKN022 OVC036 10/09 A3023 RMK AO2 SLP235 T01000089
KUAO 021036Z AUTO 00000KT 6SM BR BKN024 OVC035 11/09 A3023 RMK AO2 T01060089
KUAO 020853Z AUTO 16004KT 6SM BR FEW015 SCT021 OVC100 10/09 A3023 RMK AO2 SLP234 T01000089 51015
KUAO 020836Z AUTO 00000KT 7SM BKN016 OVC095 11/09 A3023 RMK AO2 T01060094
KUAO 020827Z AUTO 00000KT 8SM BKN014 OVC090 11/09 A3022 RMK AO2 T01060094
KUAO 020818Z AUTO 00000KT 8SM BKN016 OVC090 11/09 A3022 RMK AO2 T01110094
KUAO 020753Z AUTO 00000KT 7SM FEW015 OVC090 11/09 A3023 RMK AO2 SLP234 T01060094 401560067
KUAO 020653Z AUTO 00000KT 7SM OVC085 10/09 A3020 RMK AO2 SLP226 T01000094
KUAO 020553Z AUTO 18003KT 9SM OVC090 11/09 A3018 RMK AO2 SLP221 T01060094 10144 20106 53007